createdAt,value
2018-09-18T00:00:02.853Z,93.79
2018-09-18T00:02:31.167Z,92.12
2018-09-18T00:04:59.474Z,93.55
2018-09-18T00:07:27.777Z,93.28
2018-09-18T00:09:56.085Z,94.84
2018-09-18T00:12:24.386Z,94.98
2018-09-18T00:14:52.682Z,92.67
2018-09-18T00:17:21.000Z,92.73
2018-09-18T00:19:49.274Z,93.78
2018-09-18T00:22:17.566Z,94.46
2018-09-18T00:24:45.877Z,92.47
2018-09-18T00:27:14.178Z,94.31
2018-09-18T00:29:42.502Z,93.46
2018-09-18T00:32:10.795Z,94.13
2018-09-18T00:34:39.085Z,93.32
2018-09-18T00:37:07.385Z,94.54
2018-09-18T00:39:35.681Z,94.87
2018-09-18T00:42:03.985Z,93.29
2018-09-18T00:44:32.285Z,95.46
2018-09-18T00:47:00.578Z,96.07
2018-09-18T00:49:28.882Z,95.02
2018-09-18T00:51:57.177Z,95.00
2018-09-18T00:54:25.486Z,95.69
2018-09-18T00:56:53.793Z,95.86
2018-09-18T00:59:22.101Z,94.08
2018-09-18T01:01:50.393Z,92.83
2018-09-18T01:04:18.701Z,92.80
2018-09-18T01:06:47.006Z,93.55
2018-09-18T01:09:15.306Z,93.37
2018-09-18T01:11:43.610Z,94.45
2018-09-18T01:14:11.910Z,93.10
2018-09-18T01:16:40.213Z,91.21
2018-09-18T01:19:08.523Z,92.70
2018-09-18T01:21:36.829Z,92.67
2018-09-18T01:24:05.130Z,92.94
2018-09-18T01:26:33.489Z,93.56
2018-09-18T01:29:01.785Z,94.52
2018-09-18T01:31:30.081Z,93.41
2018-09-18T01:33:58.386Z,94.85
2018-09-18T01:36:26.677Z,93.42
2018-09-18T01:38:54.984Z,94.16
2018-09-18T01:41:23.273Z,93.57
2018-09-18T01:43:51.661Z,93.47
2018-09-18T01:46:19.882Z,93.84
2018-09-18T01:48:48.182Z,92.19
2018-09-18T01:51:16.490Z,93.52
2018-09-18T01:53:44.794Z,92.59
2018-09-18T01:56:13.109Z,92.64
2018-09-18T01:58:41.418Z,92.08
2018-09-18T02:01:09.725Z,93.51
2018-09-18T02:03:38.026Z,92.54
2018-09-18T02:06:06.350Z,92.83
2018-09-18T02:08:34.658Z,94.51
2018-09-18T02:11:02.962Z,92.71
2018-09-18T02:13:31.272Z,92.09
2018-09-18T02:15:59.565Z,91.61
2018-09-18T02:18:27.853Z,90.73
2018-09-18T02:20:56.153Z,91.97
2018-09-18T02:23:24.454Z,93.06
2018-09-18T02:25:52.765Z,92.72
2018-09-18T02:28:21.061Z,94.50
2018-09-18T02:30:49.375Z,94.72
2018-09-18T02:33:17.663Z,93.42
2018-09-18T02:35:45.980Z,94.21
2018-09-18T02:38:14.274Z,94.80
2018-09-18T02:40:42.585Z,96.44
2018-09-18T02:43:10.897Z,96.77
2018-09-18T02:45:39.189Z,96.76
2018-09-18T02:48:07.505Z,97.28
2018-09-18T02:50:35.798Z,98.94
2018-09-18T02:53:04.102Z,99.03
2018-09-18T02:55:32.405Z,98.12
2018-09-18T02:58:00.705Z,97.91
2018-09-18T03:00:29.013Z,99.47
2018-09-18T03:02:57.310Z,97.75
2018-09-18T03:05:25.617Z,97.56
2018-09-18T03:07:53.932Z,99.22
2018-09-18T03:10:22.218Z,98.96
2018-09-18T03:12:50.529Z,98.59
2018-09-18T03:15:18.814Z,99.65
2018-09-18T03:17:47.134Z,99.23
2018-09-18T03:20:15.425Z,98.63
2018-09-18T03:22:43.776Z,98.68
2018-09-18T03:25:12.169Z,100.00
2018-09-18T03:27:40.450Z,99.21
2018-09-18T03:30:08.774Z,99.77
2018-09-18T03:32:37.069Z,100.00
2018-09-18T03:35:05.386Z,100.00
2018-09-18T03:37:33.697Z,100.00
2018-09-18T03:40:02.003Z,100.00
2018-09-18T03:42:30.351Z,100.00
2018-09-18T03:44:59.255Z,100.00
2018-09-18T03:47:27.570Z,100.00
2018-09-18T03:49:55.885Z,100.00
2018-09-18T03:52:24.189Z,100.00
2018-09-18T03:54:52.505Z,100.00
2018-09-18T03:57:20.805Z,100.00
2018-09-18T03:59:49.127Z,100.00
2018-09-18T04:02:17.438Z,100.00
2018-09-18T04:04:45.745Z,100.00
2018-09-18T04:07:14.071Z,100.00
2018-09-18T04:09:42.385Z,100.00
2018-09-18T04:12:10.694Z,100.00
2018-09-18T04:14:39.010Z,100.00
2018-09-18T04:17:07.350Z,100.00
2018-09-18T04:19:35.674Z,100.00
2018-09-18T04:22:03.978Z,100.00
2018-09-18T04:24:32.298Z,100.00
2018-09-18T04:27:00.611Z,100.00
2018-09-18T04:29:28.909Z,100.00
2018-09-18T04:31:57.237Z,100.00
2018-09-18T04:34:25.537Z,100.00
2018-09-18T04:36:53.842Z,100.00
2018-09-18T04:39:22.155Z,100.00
2018-09-18T04:41:50.462Z,100.00
2018-09-18T04:44:18.784Z,100.00
2018-09-18T04:46:47.082Z,100.00
2018-09-18T04:49:15.400Z,100.00
2018-09-18T04:51:43.717Z,100.00
2018-09-18T04:54:12.025Z,100.00
2018-09-18T04:56:40.346Z,100.00
2018-09-18T04:59:08.650Z,100.00
2018-09-18T05:01:36.955Z,100.00
2018-09-18T05:04:05.265Z,100.00
2018-09-18T05:06:33.570Z,100.00
2018-09-18T05:09:01.897Z,100.00
2018-09-18T05:11:30.201Z,100.00
2018-09-18T05:13:58.573Z,100.00
2018-09-18T05:16:26.865Z,100.00
2018-09-18T05:18:55.166Z,100.00
2018-09-18T05:21:23.486Z,100.00
2018-09-18T05:23:51.797Z,100.00
2018-09-18T05:26:20.109Z,100.00
2018-09-18T05:28:48.422Z,100.00
2018-09-18T05:31:16.742Z,100.00
2018-09-18T05:33:45.098Z,100.00
2018-09-18T05:36:15.593Z,100.00
2018-09-18T05:38:43.897Z,100.00
2018-09-18T05:41:12.213Z,100.00
2018-09-18T05:43:40.518Z,100.00
2018-09-18T05:46:08.857Z,100.00
2018-09-18T05:48:37.174Z,100.00
2018-09-18T05:51:05.469Z,98.73
2018-09-18T05:53:33.779Z,98.76
2018-09-18T05:56:02.114Z,98.58
2018-09-18T05:58:30.390Z,98.52
2018-09-18T06:00:58.689Z,97.92
2018-09-18T06:03:26.988Z,97.17
2018-09-18T06:05:55.298Z,96.73
2018-09-18T06:08:23.594Z,96.33
2018-09-18T06:10:51.909Z,95.04
2018-09-18T06:13:20.217Z,94.45
2018-09-18T06:15:48.501Z,94.65
2018-09-18T06:18:16.806Z,94.84
2018-09-18T06:20:45.102Z,94.13
2018-09-18T06:23:13.421Z,94.56
2018-09-18T06:25:42.833Z,93.01
2018-09-18T06:28:11.151Z,93.25
2018-09-18T06:30:39.434Z,92.42
2018-09-18T06:33:07.789Z,92.51
2018-09-18T06:35:36.110Z,93.30
2018-09-18T06:38:04.503Z,92.79
2018-09-18T06:40:32.845Z,92.13
2018-09-18T06:43:01.137Z,91.57
2018-09-18T06:45:29.433Z,91.01
2018-09-18T06:47:57.757Z,90.29
2018-09-18T06:50:26.047Z,90.44
2018-09-18T06:52:54.342Z,90.69
2018-09-18T06:55:22.641Z,90.18
2018-09-18T06:57:50.937Z,91.58
2018-09-18T07:00:19.266Z,89.55
2018-09-18T07:02:47.557Z,89.38
2018-09-18T07:05:15.900Z,88.68
2018-09-18T07:07:44.201Z,87.49
2018-09-18T07:10:12.505Z,87.64
2018-09-18T07:12:40.826Z,87.80
2018-09-18T07:15:09.119Z,86.19
2018-09-18T07:17:37.412Z,86.86
2018-09-18T07:20:05.722Z,86.80
2018-09-18T07:22:34.021Z,86.35
2018-09-18T07:25:02.455Z,86.68
2018-09-18T07:27:30.666Z,86.12
2018-09-18T07:29:58.965Z,85.87
2018-09-18T07:32:27.270Z,87.07
2018-09-18T07:34:55.567Z,85.63
2018-09-18T07:37:23.895Z,85.19
2018-09-18T07:39:52.216Z,84.92
2018-09-18T07:42:20.590Z,84.73
2018-09-18T07:44:48.901Z,84.08
2018-09-18T07:47:17.194Z,83.09
2018-09-18T07:49:45.506Z,83.25
2018-09-18T07:52:13.867Z,82.32
2018-09-18T07:54:42.110Z,81.73
2018-09-18T07:57:10.416Z,82.22
2018-09-18T07:59:38.715Z,82.25
2018-09-18T08:02:07.028Z,81.68
2018-09-18T08:04:35.322Z,79.88
2018-09-18T08:07:03.619Z,80.85
2018-09-18T08:09:31.926Z,80.58
2018-09-18T08:12:00.217Z,78.75
2018-09-18T08:14:28.531Z,78.24
2018-09-18T08:16:56.827Z,78.50
2018-09-18T08:19:25.257Z,77.81
2018-09-18T08:21:53.484Z,78.63
2018-09-18T08:24:21.746Z,77.86
2018-09-18T08:26:50.085Z,78.70
2018-09-18T08:29:18.382Z,76.21
2018-09-18T08:31:46.677Z,76.89
2018-09-18T08:34:15.012Z,75.96
2018-09-18T08:36:43.309Z,75.42
2018-09-18T08:39:11.627Z,74.99
2018-09-18T08:41:39.953Z,74.69
2018-09-18T08:44:12.141Z,73.97
2018-09-18T08:46:40.422Z,73.60
2018-09-18T08:49:08.735Z,73.73
2018-09-18T08:51:37.099Z,73.11
2018-09-18T08:54:05.386Z,73.78
2018-09-18T08:56:33.694Z,72.75
2018-09-18T08:59:02.008Z,73.42
2018-09-18T09:01:30.314Z,72.70
2018-09-18T09:03:58.688Z,71.63
2018-09-18T09:06:26.980Z,71.23
2018-09-18T09:08:55.524Z,70.13
2018-09-18T09:11:23.640Z,69.15
2018-09-18T09:13:51.927Z,69.97
2018-09-18T09:16:20.243Z,68.78
2018-09-18T09:18:48.550Z,69.01
2018-09-18T09:21:16.929Z,69.25
2018-09-18T09:23:45.173Z,69.02
2018-09-18T09:26:13.475Z,67.86
2018-09-18T09:28:41.817Z,67.40
2018-09-18T09:31:10.091Z,68.28
2018-09-18T09:33:38.382Z,68.59
2018-09-18T09:36:06.737Z,66.70
2018-09-18T09:38:35.040Z,67.16
2018-09-18T09:41:03.346Z,67.18
2018-09-18T09:43:31.674Z,66.26
2018-09-18T09:46:00.012Z,64.62
2018-09-18T09:48:28.369Z,64.60
2018-09-18T09:50:56.684Z,63.99
2018-09-18T09:53:24.975Z,63.28
2018-09-18T09:55:53.270Z,63.64
2018-09-18T09:58:21.582Z,61.64
2018-09-18T10:00:49.909Z,60.68
2018-09-18T10:03:18.204Z,60.75
2018-09-18T10:05:46.528Z,61.66
2018-09-18T10:08:14.827Z,61.89
2018-09-18T10:10:43.272Z,58.61
2018-09-18T10:13:11.459Z,59.12
2018-09-18T10:15:39.764Z,58.72
2018-09-18T10:18:08.087Z,58.87
2018-09-18T10:20:36.374Z,59.00
2018-09-18T10:23:04.671Z,59.07
2018-09-18T10:25:32.970Z,58.61
2018-09-18T10:28:01.278Z,57.45
2018-09-18T10:30:29.593Z,57.98
2018-09-18T10:32:57.894Z,58.27
2018-09-18T10:35:26.216Z,58.13
2018-09-18T10:37:54.518Z,56.87
2018-09-18T10:40:22.791Z,56.52
2018-09-18T10:42:51.172Z,56.64
2018-09-18T10:45:19.422Z,55.42
2018-09-18T10:47:47.711Z,54.31
2018-09-18T10:50:16.019Z,53.59
2018-09-18T10:52:44.365Z,53.70
2018-09-18T10:55:12.631Z,53.10
2018-09-18T10:57:40.943Z,52.12
2018-09-18T11:00:09.272Z,51.86
2018-09-18T11:02:37.563Z,51.77
2018-09-18T11:05:05.882Z,51.57
2018-09-18T11:07:34.234Z,51.34
2018-09-18T11:10:02.550Z,50.86
2018-09-18T11:12:30.862Z,53.35
2018-09-18T11:14:59.136Z,52.46
2018-09-18T11:17:27.442Z,54.35
2018-09-18T11:19:55.789Z,50.91
2018-09-18T11:22:24.069Z,49.56
2018-09-18T11:24:52.392Z,48.22
2018-09-18T11:27:20.662Z,47.31
2018-09-18T11:29:48.959Z,48.26
2018-09-18T11:32:17.247Z,49.42
2018-09-18T11:34:45.567Z,49.42
2018-09-18T11:37:13.939Z,49.93
2018-09-18T11:39:42.222Z,47.40
2018-09-18T11:42:10.534Z,48.39
2018-09-18T11:44:38.834Z,48.14
2018-09-18T11:47:07.130Z,48.09
2018-09-18T11:49:35.445Z,50.55
2018-09-18T11:52:03.759Z,49.91
2018-09-18T11:54:32.155Z,48.54
2018-09-18T11:57:00.535Z,46.54
2018-09-18T11:59:28.812Z,46.07
2018-09-18T12:01:57.103Z,46.67
2018-09-18T12:04:25.435Z,43.46
2018-09-18T12:06:53.707Z,43.14
2018-09-18T12:09:22.015Z,45.02
2018-09-18T12:11:50.322Z,44.49
2018-09-18T12:14:18.621Z,46.44
2018-09-18T12:16:46.920Z,48.59
2018-09-18T12:19:15.234Z,47.46
2018-09-18T12:21:43.526Z,49.57
2018-09-18T12:24:11.827Z,47.88
2018-09-18T12:26:40.139Z,46.67
2018-09-18T12:29:08.434Z,47.21
2018-09-18T12:31:36.736Z,46.62
2018-09-18T12:34:05.043Z,47.56
2018-09-18T12:36:33.346Z,45.28
2018-09-18T12:39:01.660Z,46.00
2018-09-18T12:41:30.055Z,45.13
2018-09-18T12:43:58.268Z,46.22
2018-09-18T12:46:26.567Z,47.19
2018-09-18T12:48:54.898Z,48.11
2018-09-18T12:51:23.189Z,47.52
2018-09-18T12:53:51.536Z,45.48
2018-09-18T12:56:19.810Z,45.64
2018-09-18T12:58:48.122Z,46.39
2018-09-18T13:01:16.431Z,44.51
2018-09-18T13:03:44.739Z,44.57
2018-09-18T13:06:13.165Z,44.12
2018-09-18T13:08:41.339Z,44.88
2018-09-18T13:11:09.655Z,44.22
2018-09-18T13:13:38.021Z,44.61
2018-09-18T13:16:06.266Z,44.44
2018-09-18T13:18:34.578Z,43.74
2018-09-18T13:21:02.955Z,44.87
2018-09-18T13:23:31.338Z,45.21
2018-09-18T13:25:59.638Z,45.98
2018-09-18T13:28:27.936Z,45.69
2018-09-18T13:30:56.234Z,44.66
2018-09-18T13:33:24.542Z,44.84
2018-09-18T13:35:52.839Z,45.93
2018-09-18T13:38:21.150Z,46.05
2018-09-18T13:40:49.507Z,46.20
2018-09-18T13:43:17.758Z,48.41
2018-09-18T13:45:46.093Z,47.85
2018-09-18T13:48:14.399Z,48.73
2018-09-18T13:50:42.698Z,49.01
2018-09-18T13:53:11.003Z,48.28
2018-09-18T13:55:39.453Z,48.00
2018-09-18T13:58:07.635Z,47.82
2018-09-18T14:00:35.934Z,47.17
2018-09-18T14:03:04.241Z,46.64
2018-09-18T14:05:32.640Z,46.02
2018-09-18T14:08:00.848Z,44.86
2018-09-18T14:10:29.163Z,44.24
2018-09-18T14:12:57.467Z,46.66
2018-09-18T14:15:25.767Z,46.75
2018-09-18T14:17:54.083Z,46.67
2018-09-18T14:20:22.476Z,46.00
2018-09-18T14:22:50.678Z,44.58
2018-09-18T14:25:18.995Z,44.08
2018-09-18T14:27:47.294Z,45.36
2018-09-18T14:30:15.592Z,45.04
2018-09-18T14:32:43.916Z,44.09
2018-09-18T14:35:12.212Z,44.15
2018-09-18T14:37:40.509Z,43.92
2018-09-18T14:40:08.828Z,44.23
2018-09-18T14:42:37.271Z,42.66
2018-09-18T14:45:05.574Z,43.45
2018-09-18T14:47:33.886Z,44.96
2018-09-18T14:50:02.901Z,45.03
2018-09-18T14:52:31.184Z,45.55
2018-09-18T14:54:59.498Z,45.66
2018-09-18T14:57:27.795Z,47.23
2018-09-18T14:59:56.110Z,45.57
2018-09-18T15:02:24.406Z,46.29
2018-09-18T15:04:52.752Z,45.08
2018-09-18T15:07:21.027Z,46.18
2018-09-18T15:09:49.311Z,44.88
2018-09-18T15:12:17.608Z,46.43
2018-09-18T15:14:45.988Z,47.08
2018-09-18T15:17:14.214Z,47.24
2018-09-18T15:19:42.516Z,47.54
2018-09-18T15:22:10.864Z,48.25
2018-09-18T15:24:39.146Z,49.14
2018-09-18T15:27:07.454Z,47.62
2018-09-18T15:29:35.747Z,49.36
2018-09-18T15:32:04.064Z,48.65
2018-09-18T15:34:32.355Z,50.12
2018-09-18T15:37:00.651Z,49.77
2018-09-18T15:39:29.047Z,49.62
2018-09-18T15:41:57.290Z,50.00
2018-09-18T15:44:25.586Z,50.54
2018-09-18T15:46:53.899Z,50.93
2018-09-18T15:49:22.190Z,51.74
2018-09-18T15:51:50.523Z,51.57
2018-09-18T15:54:18.804Z,52.88
2018-09-18T15:56:47.098Z,52.94
2018-09-18T15:59:15.594Z,52.44
2018-09-18T16:01:45.508Z,52.65
2018-09-18T16:04:13.809Z,51.75
2018-09-18T16:06:42.118Z,52.93
2018-09-18T16:09:10.467Z,52.95
2018-09-18T16:11:38.782Z,54.74
2018-09-18T16:14:07.077Z,54.56
2018-09-18T16:16:35.438Z,54.48
2018-09-18T16:19:03.738Z,54.09
2018-09-18T16:21:32.027Z,54.52
2018-09-18T16:24:00.342Z,54.49
2018-09-18T16:26:28.641Z,54.32
2018-09-18T16:28:56.959Z,54.33
2018-09-18T16:31:25.249Z,54.37
2018-09-18T16:33:53.542Z,56.79
2018-09-18T16:36:21.850Z,57.65
2018-09-18T16:38:50.150Z,57.32
2018-09-18T16:41:18.470Z,56.57
2018-09-18T16:43:46.812Z,57.25
2018-09-18T16:46:15.082Z,58.29
2018-09-18T16:48:43.496Z,57.85
2018-09-18T16:51:11.700Z,59.05
2018-09-18T16:53:40.014Z,61.46
2018-09-18T16:56:08.310Z,62.17
2018-09-18T16:58:36.686Z,64.67
2018-09-18T17:01:04.914Z,64.72
2018-09-18T17:03:33.244Z,64.37
2018-09-18T17:06:01.553Z,65.37
2018-09-18T17:08:29.859Z,65.78
2018-09-18T17:10:59.479Z,62.37
2018-09-18T17:13:27.894Z,61.27
2018-09-18T17:15:56.095Z,59.81
2018-09-18T17:18:24.788Z,59.43
2018-09-18T17:20:53.055Z,57.95
2018-09-18T17:23:21.369Z,56.59
2018-09-18T17:25:49.655Z,55.50
2018-09-18T17:28:18.028Z,56.29
2018-09-18T17:30:46.287Z,57.18
2018-09-18T17:33:14.685Z,56.42
2018-09-18T17:35:42.979Z,56.54
2018-09-18T17:38:11.242Z,57.74
2018-09-18T17:40:39.554Z,57.21
2018-09-18T17:43:07.845Z,58.12
2018-09-18T17:45:36.143Z,59.34
2018-09-18T17:48:04.480Z,56.99
2018-09-18T17:50:32.780Z,56.65
2018-09-18T17:53:01.083Z,57.66
2018-09-18T17:55:29.383Z,58.84
2018-09-18T17:57:57.703Z,59.33
2018-09-18T18:00:26.010Z,58.70
2018-09-18T18:02:54.306Z,57.71
2018-09-18T18:05:22.646Z,56.32
2018-09-18T18:07:50.895Z,54.05
2018-09-18T18:10:19.202Z,54.41
2018-09-18T18:12:47.494Z,55.09
2018-09-18T18:15:15.807Z,55.38
2018-09-18T18:17:44.113Z,56.56
2018-09-18T18:20:12.460Z,57.35
2018-09-18T18:22:40.707Z,57.83
2018-09-18T18:25:09.007Z,57.88
2018-09-18T18:27:37.318Z,56.20
2018-09-18T18:30:05.606Z,55.78
2018-09-18T18:32:33.925Z,59.90
2018-09-18T18:35:02.218Z,62.04
2018-09-18T18:37:30.515Z,65.11
2018-09-18T18:39:58.836Z,66.20
2018-09-18T18:42:27.126Z,66.73
2018-09-18T18:45:01.562Z,67.29
2018-09-18T18:47:29.961Z,69.54
2018-09-18T18:49:58.188Z,69.32
2018-09-18T18:52:26.484Z,69.76
2018-09-18T18:54:54.778Z,71.18
2018-09-18T18:57:23.090Z,69.23
2018-09-18T18:59:51.390Z,70.02
2018-09-18T19:02:19.702Z,67.50
2018-09-18T19:04:48.008Z,69.25
2018-09-18T19:07:16.349Z,60.94
2018-09-18T19:09:44.643Z,62.86
2018-09-18T19:12:12.966Z,61.69
2018-09-18T19:14:41.253Z,61.22
2018-09-18T19:17:09.555Z,62.89
2018-09-18T19:19:37.872Z,60.00
2018-09-18T19:22:06.165Z,58.14
2018-09-18T19:24:34.485Z,58.72
2018-09-18T19:27:02.788Z,58.91
2018-09-18T19:29:31.106Z,59.36
2018-09-18T19:31:59.576Z,58.62
2018-09-18T19:34:27.884Z,60.36
2018-09-18T19:36:56.179Z,61.27
2018-09-18T19:39:24.475Z,61.51
2018-09-18T19:41:52.783Z,60.72
2018-09-18T19:44:59.389Z,61.68
2018-09-18T19:47:27.725Z,62.03
2018-09-18T19:49:56.019Z,60.71
2018-09-18T19:52:24.413Z,61.75
2018-09-18T19:54:52.615Z,61.10
2018-09-18T19:57:22.095Z,64.02
2018-09-18T19:59:50.419Z,62.93
2018-09-18T20:02:18.710Z,62.13
2018-09-18T20:04:47.010Z,63.97
2018-09-18T20:07:15.311Z,64.15
2018-09-18T20:09:43.624Z,63.89
2018-09-18T20:12:12.330Z,64.18
2018-09-18T20:14:40.644Z,62.90
2018-09-18T20:17:08.934Z,62.45
2018-09-18T20:19:37.243Z,64.44
2018-09-18T20:22:05.530Z,64.00
2018-09-18T20:24:33.835Z,64.62
2018-09-18T20:27:02.131Z,67.33
2018-09-18T20:29:30.512Z,66.43
2018-09-18T20:31:58.814Z,66.60
2018-09-18T20:34:27.177Z,65.75
2018-09-18T20:36:55.481Z,65.76
2018-09-18T20:39:23.789Z,65.94
2018-09-18T20:41:52.126Z,65.48
2018-09-18T20:44:20.406Z,66.19
2018-09-18T20:46:48.739Z,67.27
2018-09-18T20:49:17.059Z,65.94
2018-09-18T20:51:46.261Z,65.72
2018-09-18T20:54:14.571Z,67.57
2018-09-18T20:56:42.864Z,66.29
2018-09-18T20:59:11.178Z,67.93
2018-09-18T21:01:39.480Z,63.86
2018-09-18T21:04:07.796Z,63.65
2018-09-18T21:06:36.100Z,63.51
2018-09-18T21:09:04.406Z,64.64
2018-09-18T21:11:32.714Z,64.66
2018-09-18T21:14:01.027Z,67.25
2018-09-18T21:16:29.346Z,67.21
2018-09-18T21:18:57.647Z,67.16
2018-09-18T21:21:25.976Z,67.24
2018-09-18T21:23:54.281Z,67.45
2018-09-18T21:26:22.575Z,69.49
2018-09-18T21:28:50.889Z,70.51
2018-09-18T21:31:19.207Z,70.62
2018-09-18T21:33:47.518Z,69.84
2018-09-18T21:36:15.821Z,71.68
2018-09-18T21:38:44.154Z,70.05
2018-09-18T21:41:12.444Z,73.75
2018-09-18T21:43:40.757Z,71.70
2018-09-18T21:46:09.063Z,73.49
2018-09-18T21:48:37.388Z,71.05
2018-09-18T21:51:05.754Z,72.84
2018-09-18T21:53:34.064Z,73.68
2018-09-18T21:56:02.382Z,70.76
2018-09-18T21:58:30.682Z,72.75
2018-09-18T22:00:58.990Z,71.19
2018-09-18T22:03:27.324Z,69.68
2018-09-18T22:05:55.666Z,69.85
2018-09-18T22:08:23.990Z,71.62
2018-09-18T22:10:52.295Z,72.55
2018-09-18T22:13:20.611Z,70.37
2018-09-18T22:15:48.919Z,72.48
2018-09-18T22:18:17.254Z,71.12
2018-09-18T22:20:45.571Z,73.38
2018-09-18T22:23:13.922Z,73.03
2018-09-18T22:25:42.245Z,70.92
2018-09-18T22:28:10.565Z,72.48
2018-09-18T22:30:38.888Z,70.38
2018-09-18T22:33:07.199Z,69.62
2018-09-18T22:35:35.508Z,71.33
2018-09-18T22:38:03.821Z,72.67
2018-09-18T22:40:32.125Z,69.65
2018-09-18T22:43:00.479Z,69.21
2018-09-18T22:45:28.759Z,70.55
2018-09-18T22:47:57.074Z,69.35
2018-09-18T22:50:25.375Z,72.82
2018-09-18T22:52:53.683Z,71.94
2018-09-18T22:55:22.005Z,73.34
2018-09-18T22:57:50.306Z,73.44
2018-09-18T23:00:18.622Z,73.30
2018-09-18T23:02:46.938Z,75.67
2018-09-18T23:05:15.259Z,75.86
2018-09-18T23:07:43.566Z,75.73
2018-09-18T23:10:11.871Z,76.46
2018-09-18T23:12:40.199Z,79.03
2018-09-18T23:15:08.524Z,80.89
2018-09-18T23:17:36.840Z,81.81
2018-09-18T23:20:05.150Z,80.47
2018-09-18T23:22:33.473Z,82.06
2018-09-18T23:25:01.784Z,83.63
2018-09-18T23:27:30.095Z,83.75
2018-09-18T23:29:58.415Z,83.66
2018-09-18T23:32:26.744Z,83.60
2018-09-18T23:34:55.058Z,83.55
2018-09-18T23:37:23.365Z,84.45
2018-09-18T23:39:51.683Z,85.61
2018-09-18T23:42:20.137Z,85.74
2018-09-18T23:44:48.301Z,86.97
2018-09-18T23:47:16.619Z,88.16
2018-09-18T23:49:44.926Z,87.95
2018-09-18T23:52:13.257Z,88.80
2018-09-18T23:54:41.554Z,88.11
2018-09-18T23:57:09.862Z,88.59
2018-09-18T23:59:38.184Z,90.38
